sensor_id;sensor_type;location;lat;lon;timestamp;P1;P2;P0
63969;PMS5003;50156;37.772;-122.432;2022-12-18T00:01:14;13;13;
63969;PMS5003;50156;37.772;-122.432;2022-12-18T00:03:44;13;13;
63969;PMS5003;50156;37.772;-122.432;2022-12-18T00:06:13;17;13;
63969;PMS5003;50156;37.772;-122.432;2022-12-18T00:08:43;18;16;
63969;PMS5003;50156;37.772;-122.432;2022-12-18T00:11:14;15;13;
63969;PMS5003;50156;37.772;-122.432;2022-12-18T00:13:45;12;11;
63969;PMS5003;50156;37.772;-122.432;2022-12-18T00:16:15;12;12;
63969;PMS5003;50156;37.772;-122.432;2022-12-18T00:18:46;17;15;
63969;PMS5003;50156;37.772;-122.432;2022-12-18T00:21:16;17;15;
63969;PMS5003;50156;37.772;-122.432;2022-12-18T00:23:46;14;14;
63969;PMS5003;50156;37.772;-122.432;2022-12-18T00:26:16;16;15;
63969;PMS5003;50156;37.772;-122.432;2022-12-18T00:28:47;19;18;
63969;PMS5003;50156;37.772;-122.432;2022-12-18T00:31:17;18;16;
63969;PMS5003;50156;37.772;-122.432;2022-12-18T00:33:48;19;17;
63969;PMS5003;50156;37.772;-122.432;2022-12-18T00:36:18;16;15;
63969;PMS5003;50156;37.772;-122.432;2022-12-18T00:38:49;20;17;
63969;PMS5003;50156;37.772;-122.432;2022-12-18T00:41:18;20;20;
63969;PMS5003;50156;37.772;-122.432;2022-12-18T00:43:48;18;16;
63969;PMS5003;50156;37.772;-122.432;2022-12-18T00:46:17;20;20;
63969;PMS5003;50156;37.772;-122.432;2022-12-18T00:48:45;20;19;
63969;PMS5003;50156;37.772;-122.432;2022-12-18T00:51:13;18;18;
63969;PMS5003;50156;37.772;-122.432;2022-12-18T00:53:42;20;19;
63969;PMS5003;50156;37.772;-122.432;2022-12-18T00:56:10;18;18;
63969;PMS5003;50156;37.772;-122.432;2022-12-18T00:58:38;19;18;
63969;PMS5003;50156;37.772;-122.432;2022-12-18T01:01:07;22;21;
63969;PMS5003;50156;37.772;-122.432;2022-12-18T01:03:36;27;24;
63969;PMS5003;50156;37.772;-122.432;2022-12-18T01:06:06;21;18;
63969;PMS5003;50156;37.772;-122.432;2022-12-18T01:08:36;23;21;
63969;PMS5003;50156;37.772;-122.432;2022-12-18T01:11:07;21;19;
63969;PMS5003;50156;37.772;-122.432;2022-12-18T01:13:37;24;23;
63969;PMS5003;50156;37.772;-122.432;2022-12-18T01:16:06;22;22;
63969;PMS5003;50156;37.772;-122.432;2022-12-18T01:18:37;26;26;
63969;PMS5003;50156;37.772;-122.432;2022-12-18T01:21:07;27;27;
63969;PMS5003;50156;37.772;-122.432;2022-12-18T01:23:36;26;24;
63969;PMS5003;50156;37.772;-122.432;2022-12-18T01:26:06;26;22;
63969;PMS5003;50156;37.772;-122.432;2022-12-18T01:28:35;28;25;
63969;PMS5003;50156;37.772;-122.432;2022-12-18T01:31:21;25;24;
63969;PMS5003;50156;37.772;-122.432;2022-12-18T01:33:51;25;23;
63969;PMS5003;50156;37.772;-122.432;2022-12-18T01:36:21;24;23;
63969;PMS5003;50156;37.772;-122.432;2022-12-18T01:38:52;26;24;
63969;PMS5003;50156;37.772;-122.432;2022-12-18T01:41:23;24;24;
63969;PMS5003;50156;37.772;-122.432;2022-12-18T01:43:55;24;24;
63969;PMS5003;50156;37.772;-122.432;2022-12-18T01:46:25;28;25;
63969;PMS5003;50156;37.772;-122.432;2022-12-18T01:48:55;27;27;
63969;PMS5003;50156;37.772;-122.432;2022-12-18T01:51:25;23;23;
63969;PMS5003;50156;37.772;-122.432;2022-12-18T01:53:57;27;26;
63969;PMS5003;50156;37.772;-122.432;2022-12-18T01:56:26;27;23;
63969;PMS5003;50156;37.772;-122.432;2022-12-18T01:58:56;28;28;
63969;PMS5003;50156;37.772;-122.432;2022-12-18T02:01:27;21;20;
63969;PMS5003;50156;37.772;-122.432;2022-12-18T02:04:13;26;24;
63969;PMS5003;50156;37.772;-122.432;2022-12-18T02:06:49;33;30;
63969;PMS5003;50156;37.772;-122.432;2022-12-18T02:09:23;27;25;
63969;PMS5003;50156;37.772;-122.432;2022-12-18T02:11:59;30;27;
63969;PMS5003;50156;37.772;-122.432;2022-12-18T02:14:34;28;27;
63969;PMS5003;50156;37.772;-122.432;2022-12-18T02:17:11;30;30;
63969;PMS5003;50156;37.772;-122.432;2022-12-18T02:19:48;23;23;
63969;PMS5003;50156;37.772;-122.432;2022-12-18T02:22:30;29;28;
63969;PMS5003;50156;37.772;-122.432;2022-12-18T02:25:13;38;34;
63969;PMS5003;50156;37.772;-122.432;2022-12-18T02:27:49;27;25;
63969;PMS5003;50156;37.772;-122.432;2022-12-18T02:30:19;31;29;
63969;PMS5003;50156;37.772;-122.432;2022-12-18T02:32:50;30;28;
63969;PMS5003;50156;37.772;-122.432;2022-12-18T02:35:22;28;28;
63969;PMS5003;50156;37.772;-122.432;2022-12-18T02:37:54;34;29;
63969;PMS5003;50156;37.772;-122.432;2022-12-18T02:40:24;29;27;
63969;PMS5003;50156;37.772;-122.432;2022-12-18T02:42:55;37;33;
63969;PMS5003;50156;37.772;-122.432;2022-12-18T02:45:29;37;33;
63969;PMS5003;50156;37.772;-122.432;2022-12-18T02:47:58;33;29;
63969;PMS5003;50156;37.772;-122.432;2022-12-18T02:50:30;36;34;
63969;PMS5003;50156;37.772;-122.432;2022-12-18T02:53:06;39;37;
63969;PMS5003;50156;37.772;-122.432;2022-12-18T02:55:45;43;39;
63969;PMS5003;50156;37.772;-122.432;2022-12-18T02:58:30;34;32;
63969;PMS5003;50156;37.772;-122.432;2022-12-18T03:01:09;34;32;
63969;PMS5003;50156;37.772;-122.432;2022-12-18T03:03:45;37;36;
63969;PMS5003;50156;37.772;-122.432;2022-12-18T03:06:21;34;34;
63969;PMS5003;50156;37.772;-122.432;2022-12-18T03:08:54;38;36;
63969;PMS5003;50156;37.772;-122.432;2022-12-18T03:11:26;31;31;
63969;PMS5003;50156;37.772;-122.432;2022-12-18T03:13:58;33;32;
63969;PMS5003;50156;37.772;-122.432;2022-12-18T03:16:28;38;36;
63969;PMS5003;50156;37.772;-122.432;2022-12-18T03:18:58;34;33;
63969;PMS5003;50156;37.772;-122.432;2022-12-18T03:21:32;39;39;
63969;PMS5003;50156;37.772;-122.432;2022-12-18T03:24:05;35;35;
63969;PMS5003;50156;37.772;-122.432;2022-12-18T03:26:37;32;29;
63969;PMS5003;50156;37.772;-122.432;2022-12-18T03:29:09;30;28;
63969;PMS5003;50156;37.772;-122.432;2022-12-18T03:31:46;35;34;
63969;PMS5003;50156;37.772;-122.432;2022-12-18T03:34:23;35;32;
63969;PMS5003;50156;37.772;-122.432;2022-12-18T03:36:56;43;38;
63969;PMS5003;50156;37.772;-122.432;2022-12-18T03:39:24;42;35;
63969;PMS5003;50156;37.772;-122.432;2022-12-18T03:41:55;34;34;
63969;PMS5003;50156;37.772;-122.432;2022-12-18T03:44:29;38;38;
63969;PMS5003;50156;37.772;-122.432;2022-12-18T03:47:05;40;37;
63969;PMS5003;50156;37.772;-122.432;2022-12-18T03:49:43;40;36;
63969;PMS5003;50156;37.772;-122.432;2022-12-18T03:52:18;40;36;
63969;PMS5003;50156;37.772;-122.432;2022-12-18T03:54:53;45;42;
63969;PMS5003;50156;37.772;-122.432;2022-12-18T03:57:25;39;37;
63969;PMS5003;50156;37.772;-122.432;2022-12-18T03:59:57;46;42;
63969;PMS5003;50156;37.772;-122.432;2022-12-18T04:02:28;43;41;
63969;PMS5003;50156;37.772;-122.432;2022-12-18T04:05:01;41;37;
63969;PMS5003;50156;37.772;-122.432;2022-12-18T04:07:34;42;40;
63969;PMS5003;50156;37.772;-122.432;2022-12-18T04:10:03;44;43;
63969;PMS5003;50156;37.772;-122.432;2022-12-18T04:12:34;44;41;
63969;PMS5003;50156;37.772;-122.432;2022-12-18T04:15:05;36;33;
63969;PMS5003;50156;37.772;-122.432;2022-12-18T04:17:34;41;40;
63969;PMS5003;50156;37.772;-122.432;2022-12-18T04:20:03;46;44;
63969;PMS5003;50156;37.772;-122.432;2022-12-18T04:22:33;48;44;
63969;PMS5003;50156;37.772;-122.432;2022-12-18T04:25:01;42;42;
63969;PMS5003;50156;37.772;-122.432;2022-12-18T04:27:30;36;32;
63969;PMS5003;50156;37.772;-122.432;2022-12-18T04:29:59;43;39;
63969;PMS5003;50156;37.772;-122.432;2022-12-18T04:32:27;42;41;
63969;PMS5003;50156;37.772;-122.432;2022-12-18T04:34:57;46;42;
63969;PMS5003;50156;37.772;-122.432;2022-12-18T04:37:26;42;39;
63969;PMS5003;50156;37.772;-122.432;2022-12-18T04:39:54;45;43;
63969;PMS5003;50156;37.772;-122.432;2022-12-18T04:42:22;44;43;
63969;PMS5003;50156;37.772;-122.432;2022-12-18T04:44:51;42;39;
63969;PMS5003;50156;37.772;-122.432;2022-12-18T04:47:19;46;43;
63969;PMS5003;50156;37.772;-122.432;2022-12-18T04:49:49;42;39;
63969;PMS5003;50156;37.772;-122.432;2022-12-18T04:52:17;37;36;
63969;PMS5003;50156;37.772;-122.432;2022-12-18T04:54:46;45;42;
63969;PMS5003;50156;37.772;-122.432;2022-12-18T04:57:14;41;35;
63969;PMS5003;50156;37.772;-122.432;2022-12-18T04:59:43;44;40;
63969;PMS5003;50156;37.772;-122.432;2022-12-18T05:02:12;40;35;
63969;PMS5003;50156;37.772;-122.432;2022-12-18T05:04:40;43;38;
63969;PMS5003;50156;37.772;-122.432;2022-12-18T05:07:08;37;37;
63969;PMS5003;50156;37.772;-122.432;2022-12-18T05:09:37;33;32;
63969;PMS5003;50156;37.772;-122.432;2022-12-18T05:12:05;42;38;
63969;PMS5003;50156;37.772;-122.432;2022-12-18T05:14:34;35;35;
63969;PMS5003;50156;37.772;-122.432;2022-12-18T05:17:03;39;37;
63969;PMS5003;50156;37.772;-122.432;2022-12-18T05:19:31;40;38;
63969;PMS5003;50156;37.772;-122.432;2022-12-18T05:22:00;40;34;
63969;PMS5003;50156;37.772;-122.432;2022-12-18T05:24:29;43;39;
63969;PMS5003;50156;37.772;-122.432;2022-12-18T05:26:57;41;35;
63969;PMS5003;50156;37.772;-122.432;2022-12-18T05:29:26;40;38;
63969;PMS5003;50156;37.772;-122.432;2022-12-18T05:31:55;38;37;
63969;PMS5003;50156;37.772;-122.432;2022-12-18T05:34:23;52;46;
63969;PMS5003;50156;37.772;-122.432;2022-12-18T05:36:51;43;40;
63969;PMS5003;50156;37.772;-122.432;2022-12-18T05:39:19;40;40;
63969;PMS5003;50156;37.772;-122.432;2022-12-18T05:41:48;35;35;
63969;PMS5003;50156;37.772;-122.432;2022-12-18T05:44:16;39;37;
63969;PMS5003;50156;37.772;-122.432;2022-12-18T05:46:45;41;41;
63969;PMS5003;50156;37.772;-122.432;2022-12-18T05:49:13;41;40;
63969;PMS5003;50156;37.772;-122.432;2022-12-18T05:51:42;43;39;
63969;PMS5003;50156;37.772;-122.432;2022-12-18T05:54:11;40;40;
63969;PMS5003;50156;37.772;-122.432;2022-12-18T05:56:39;39;39;
63969;PMS5003;50156;37.772;-122.432;2022-12-18T05:59:08;44;43;
63969;PMS5003;50156;37.772;-122.432;2022-12-18T06:01:36;39;39;
63969;PMS5003;50156;37.772;-122.432;2022-12-18T06:04:05;39;36;
63969;PMS5003;50156;37.772;-122.432;2022-12-18T06:06:33;41;38;
63969;PMS5003;50156;37.772;-122.432;2022-12-18T06:09:03;38;36;
63969;PMS5003;50156;37.772;-122.432;2022-12-18T06:11:31;37;37;
63969;PMS5003;50156;37.772;-122.432;2022-12-18T06:14:00;38;36;
63969;PMS5003;50156;37.772;-122.432;2022-12-18T06:16:30;42;38;
63969;PMS5003;50156;37.772;-122.432;2022-12-18T06:19:00;35;35;
63969;PMS5003;50156;37.772;-122.432;2022-12-18T06:21:30;43;41;
63969;PMS5003;50156;37.772;-122.432;2022-12-18T06:23:59;40;39;
63969;PMS5003;50156;37.772;-122.432;2022-12-18T06:26:28;45;39;
63969;PMS5003;50156;37.772;-122.432;2022-12-18T06:28:57;47;47;
63969;PMS5003;50156;37.772;-122.432;2022-12-18T06:31:25;45;41;
63969;PMS5003;50156;37.772;-122.432;2022-12-18T06:33:54;50;45;
63969;PMS5003;50156;37.772;-122.432;2022-12-18T06:36:23;47;42;
63969;PMS5003;50156;37.772;-122.432;2022-12-18T06:38:51;47;44;
63969;PMS5003;50156;37.772;-122.432;2022-12-18T06:41:20;46;46;
63969;PMS5003;50156;37.772;-122.432;2022-12-18T06:43:49;51;47;
63969;PMS5003;50156;37.772;-122.432;2022-12-18T06:46:18;53;48;
63969;PMS5003;50156;37.772;-122.432;2022-12-18T06:48:47;53;51;
63969;PMS5003;50156;37.772;-122.432;2022-12-18T06:51:18;54;51;
63969;PMS5003;50156;37.772;-122.432;2022-12-18T06:53:48;56;53;
63969;PMS5003;50156;37.772;-122.432;2022-12-18T06:56:17;56;52;
63969;PMS5003;50156;37.772;-122.432;2022-12-18T06:58:45;59;56;
63969;PMS5003;50156;37.772;-122.432;2022-12-18T07:01:14;53;51;
63969;PMS5003;50156;37.772;-122.432;2022-12-18T07:03:42;58;54;
63969;PMS5003;50156;37.772;-122.432;2022-12-18T07:06:13;61;59;
63969;PMS5003;50156;37.772;-122.432;2022-12-18T07:08:43;50;49;
63969;PMS5003;50156;37.772;-122.432;2022-12-18T07:11:12;56;52;
63969;PMS5003;50156;37.772;-122.432;2022-12-18T07:13:41;55;53;
63969;PMS5003;50156;37.772;-122.432;2022-12-18T07:16:11;57;55;
63969;PMS5003;50156;37.772;-122.432;2022-12-18T07:18:41;52;52;
63969;PMS5003;50156;37.772;-122.432;2022-12-18T07:21:11;53;50;
63969;PMS5003;50156;37.772;-122.432;2022-12-18T07:23:41;55;51;
63969;PMS5003;50156;37.772;-122.432;2022-12-18T07:26:11;52;50;
63969;PMS5003;50156;37.772;-122.432;2022-12-18T07:28:41;50;48;
63969;PMS5003;50156;37.772;-122.432;2022-12-18T07:31:10;52;51;
63969;PMS5003;50156;37.772;-122.432;2022-12-18T07:33:42;50;45;
63969;PMS5003;50156;37.772;-122.432;2022-12-18T07:36:11;51;51;
63969;PMS5003;50156;37.772;-122.432;2022-12-18T07:38:40;47;47;
63969;PMS5003;50156;37.772;-122.432;2022-12-18T07:41:09;49;49;
63969;PMS5003;50156;37.772;-122.432;2022-12-18T07:43:38;50;47;
63969;PMS5003;50156;37.772;-122.432;2022-12-18T07:46:08;52;51;
63969;PMS5003;50156;37.772;-122.432;2022-12-18T07:48:37;53;48;
63969;PMS5003;50156;37.772;-122.432;2022-12-18T07:51:06;52;49;
63969;PMS5003;50156;37.772;-122.432;2022-12-18T07:53:35;43;43;
63969;PMS5003;50156;37.772;-122.432;2022-12-18T07:56:05;51;50;
63969;PMS5003;50156;37.772;-122.432;2022-12-18T07:58:35;47;44;
63969;PMS5003;50156;37.772;-122.432;2022-12-18T08:01:04;55;49;
63969;PMS5003;50156;37.772;-122.432;2022-12-18T08:03:35;50;46;
63969;PMS5003;50156;37.772;-122.432;2022-12-18T08:06:06;50;47;
63969;PMS5003;50156;37.772;-122.432;2022-12-18T08:08:36;53;48;
63969;PMS5003;50156;37.772;-122.432;2022-12-18T08:11:04;48;47;
63969;PMS5003;50156;37.772;-122.432;2022-12-18T08:13:33;52;47;
63969;PMS5003;50156;37.772;-122.432;2022-12-18T08:16:03;45;40;
63969;PMS5003;50156;37.772;-122.432;2022-12-18T08:18:33;44;44;
63969;PMS5003;50156;37.772;-122.432;2022-12-18T08:21:10;47;46;
63969;PMS5003;50156;37.772;-122.432;2022-12-18T08:23:41;48;45;
63969;PMS5003;50156;37.772;-122.432;2022-12-18T08:26:10;48;46;
63969;PMS5003;50156;37.772;-122.432;2022-12-18T08:28:38;54;49;
63969;PMS5003;50156;37.772;-122.432;2022-12-18T08:31:07;56;53;
63969;PMS5003;50156;37.772;-122.432;2022-12-18T08:33:36;42;39;
63969;PMS5003;50156;37.772;-122.432;2022-12-18T08:36:07;51;49;
63969;PMS5003;50156;37.772;-122.432;2022-12-18T08:38:37;46;46;
63969;PMS5003;50156;37.772;-122.432;2022-12-18T08:41:06;48;48;
63969;PMS5003;50156;37.772;-122.432;2022-12-18T08:43:37;59;53;
63969;PMS5003;50156;37.772;-122.432;2022-12-18T08:46:06;50;49;
63969;PMS5003;50156;37.772;-122.432;2022-12-18T08:48:34;51;47;
63969;PMS5003;50156;37.772;-122.432;2022-12-18T08:51:03;57;53;
63969;PMS5003;50156;37.772;-122.432;2022-12-18T08:53:32;47;44;
63969;PMS5003;50156;37.772;-122.432;2022-12-18T08:56:01;51;47;
63969;PMS5003;50156;37.772;-122.432;2022-12-18T08:58:30;55;49;
63969;PMS5003;50156;37.772;-122.432;2022-12-18T09:00:59;46;43;
63969;PMS5003;50156;37.772;-122.432;2022-12-18T09:03:29;50;48;
63969;PMS5003;50156;37.772;-122.432;2022-12-18T09:05:58;47;44;
63969;PMS5003;50156;37.772;-122.432;2022-12-18T09:08:27;59;52;
63969;PMS5003;50156;37.772;-122.432;2022-12-18T09:10:55;47;45;
63969;PMS5003;50156;37.772;-122.432;2022-12-18T09:13:24;54;52;
63969;PMS5003;50156;37.772;-122.432;2022-12-18T09:15:54;46;46;
63969;PMS5003;50156;37.772;-122.432;2022-12-18T09:18:23;52;48;
63969;PMS5003;50156;37.772;-122.432;2022-12-18T09:20:52;49;48;
63969;PMS5003;50156;37.772;-122.432;2022-12-18T09:23:21;53;47;
63969;PMS5003;50156;37.772;-122.432;2022-12-18T09:25:49;46;44;
63969;PMS5003;50156;37.772;-122.432;2022-12-18T09:28:18;51;49;
63969;PMS5003;50156;37.772;-122.432;2022-12-18T09:30:47;59;51;
63969;PMS5003;50156;37.772;-122.432;2022-12-18T09:33:17;49;46;
63969;PMS5003;50156;37.772;-122.432;2022-12-18T09:35:46;52;50;
63969;PMS5003;50156;37.772;-122.432;2022-12-18T09:38:15;52;50;
63969;PMS5003;50156;37.772;-122.432;2022-12-18T09:40:46;52;52;
63969;PMS5003;50156;37.772;-122.432;2022-12-18T09:43:17;52;47;
63969;PMS5003;50156;37.772;-122.432;2022-12-18T09:45:50;56;52;
63969;PMS5003;50156;37.772;-122.432;2022-12-18T09:48:23;60;56;
63969;PMS5003;50156;37.772;-122.432;2022-12-18T09:50:57;56;48;
63969;PMS5003;50156;37.772;-122.432;2022-12-18T09:53:30;61;54;
63969;PMS5003;50156;37.772;-122.432;2022-12-18T09:56:02;61;51;
63969;PMS5003;50156;37.772;-122.432;2022-12-18T09:58:33;60;55;
63969;PMS5003;50156;37.772;-122.432;2022-12-18T10:01:10;52;52;
63969;PMS5003;50156;37.772;-122.432;2022-12-18T10:03:41;53;50;
63969;PMS5003;50156;37.772;-122.432;2022-12-18T10:06:13;62;60;
63969;PMS5003;50156;37.772;-122.432;2022-12-18T10:08:48;55;52;
63969;PMS5003;50156;37.772;-122.432;2022-12-18T10:11:27;53;49;
63969;PMS5003;50156;37.772;-122.432;2022-12-18T10:14:07;52;50;
63969;PMS5003;50156;37.772;-122.432;2022-12-18T10:16:49;61;56;
63969;PMS5003;50156;37.772;-122.432;2022-12-18T10:19:29;58;55;
63969;PMS5003;50156;37.772;-122.432;2022-12-18T10:22:11;62;55;
63969;PMS5003;50156;37.772;-122.432;2022-12-18T10:24:48;52;50;
63969;PMS5003;50156;37.772;-122.432;2022-12-18T10:27:27;56;53;
63969;PMS5003;50156;37.772;-122.432;2022-12-18T10:29:56;58;51;
63969;PMS5003;50156;37.772;-122.432;2022-12-18T10:32:26;59;54;
63969;PMS5003;50156;37.772;-122.432;2022-12-18T10:34:57;55;52;
63969;PMS5003;50156;37.772;-122.432;2022-12-18T10:37:27;56;51;
63969;PMS5003;50156;37.772;-122.432;2022-12-18T10:40:13;55;51;
63969;PMS5003;50156;37.772;-122.432;2022-12-18T10:42:42;65;60;
63969;PMS5003;50156;37.772;-122.432;2022-12-18T10:45:12;57;56;
63969;PMS5003;50156;37.772;-122.432;2022-12-18T10:47:44;55;48;
63969;PMS5003;50156;37.772;-122.432;2022-12-18T10:50:19;55;53;
63969;PMS5003;50156;37.772;-122.432;2022-12-18T10:52:54;61;53;
63969;PMS5003;50156;37.772;-122.432;2022-12-18T10:55:24;50;50;
63969;PMS5003;50156;37.772;-122.432;2022-12-18T10:58:13;54;54;
63969;PMS5003;50156;37.772;-122.432;2022-12-18T11:01:01;55;53;
63969;PMS5003;50156;37.772;-122.432;2022-12-18T11:03:34;49;48;
63969;PMS5003;50156;37.772;-122.432;2022-12-18T11:06:05;52;50;
63969;PMS5003;50156;37.772;-122.432;2022-12-18T11:08:36;54;51;
63969;PMS5003;50156;37.772;-122.432;2022-12-18T11:11:07;57;48;
63969;PMS5003;50156;37.772;-122.432;2022-12-18T11:13:50;57;53;
63969;PMS5003;50156;37.772;-122.432;2022-12-18T11:16:26;55;54;
63969;PMS5003;50156;37.772;-122.432;2022-12-18T11:19:00;53;52;
63969;PMS5003;50156;37.772;-122.432;2022-12-18T11:21:42;54;50;
63969;PMS5003;50156;37.772;-122.432;2022-12-18T11:24:17;56;54;
63969;PMS5003;50156;37.772;-122.432;2022-12-18T11:26:52;57;51;
63969;PMS5003;50156;37.772;-122.432;2022-12-18T11:29:23;64;60;
63969;PMS5003;50156;37.772;-122.432;2022-12-18T11:32:12;60;57;
63969;PMS5003;50156;37.772;-122.432;2022-12-18T11:34:55;56;52;
63969;PMS5003;50156;37.772;-122.432;2022-12-18T11:37:29;49;45;
63969;PMS5003;50156;37.772;-122.432;2022-12-18T11:40:01;57;55;
63969;PMS5003;50156;37.772;-122.432;2022-12-18T11:42:38;56;55;
63969;PMS5003;50156;37.772;-122.432;2022-12-18T11:45:20;57;51;
63969;PMS5003;50156;37.772;-122.432;2022-12-18T11:47:56;63;55;
63969;PMS5003;50156;37.772;-122.432;2022-12-18T11:50:31;52;49;
63969;PMS5003;50156;37.772;-122.432;2022-12-18T11:53:11;61;54;
63969;PMS5003;50156;37.772;-122.432;2022-12-18T11:55:43;54;52;
63969;PMS5003;50156;37.772;-122.432;2022-12-18T11:58:29;57;51;
63969;PMS5003;50156;37.772;-122.432;2022-12-18T12:01:12;54;51;
63969;PMS5003;50156;37.772;-122.432;2022-12-18T12:03:50;53;50;
63969;PMS5003;50156;37.772;-122.432;2022-12-18T12:06:32;56;50;
63969;PMS5003;50156;37.772;-122.432;2022-12-18T12:09:08;48;47;
63969;PMS5003;50156;37.772;-122.432;2022-12-18T12:11:48;49;49;
63969;PMS5003;50156;37.772;-122.432;2022-12-18T12:14:30;50;47;
63969;PMS5003;50156;37.772;-122.432;2022-12-18T12:17:12;49;47;
63969;PMS5003;50156;37.772;-122.432;2022-12-18T12:19:50;50;45;
63969;PMS5003;50156;37.772;-122.432;2022-12-18T12:22:27;52;46;
63969;PMS5003;50156;37.772;-122.432;2022-12-18T12:25:11;48;46;
63969;PMS5003;50156;37.772;-122.432;2022-12-18T12:27:51;52;46;
63969;PMS5003;50156;37.772;-122.432;2022-12-18T12:30:30;55;50;
63969;PMS5003;50156;37.772;-122.432;2022-12-18T12:33:11;53;46;
63969;PMS5003;50156;37.772;-122.432;2022-12-18T12:35:51;50;48;
63969;PMS5003;50156;37.772;-122.432;2022-12-18T12:38:27;54;48;
63969;PMS5003;50156;37.772;-122.432;2022-12-18T12:41:03;49;45;
63969;PMS5003;50156;37.772;-122.432;2022-12-18T12:43:36;52;47;
63969;PMS5003;50156;37.772;-122.432;2022-12-18T12:46:10;61;56;
63969;PMS5003;50156;37.772;-122.432;2022-12-18T12:48:43;47;47;
63969;PMS5003;50156;37.772;-122.432;2022-12-18T12:51:16;59;52;
63969;PMS5003;50156;37.772;-122.432;2022-12-18T12:53:48;49;49;
63969;PMS5003;50156;37.772;-122.432;2022-12-18T12:56:18;51;50;
63969;PMS5003;50156;37.772;-122.432;2022-12-18T12:58:51;53;44;
63969;PMS5003;50156;37.772;-122.432;2022-12-18T13:01:29;46;45;
63969;PMS5003;50156;37.772;-122.432;2022-12-18T13:04:10;56;51;
63969;PMS5003;50156;37.772;-122.432;2022-12-18T13:06:49;57;50;
63969;PMS5003;50156;37.772;-122.432;2022-12-18T13:09:25;47;44;
63969;PMS5003;50156;37.772;-122.432;2022-12-18T13:12:02;48;42;
63969;PMS5003;50156;37.772;-122.432;2022-12-18T13:14:37;58;50;
63969;PMS5003;50156;37.772;-122.432;2022-12-18T13:17:43;49;46;
63969;PMS5003;50156;37.772;-122.432;2022-12-18T13:20:13;47;46;
63969;PMS5003;50156;37.772;-122.432;2022-12-18T13:22:44;44;43;
63969;PMS5003;50156;37.772;-122.432;2022-12-18T13:25:47;57;53;
63969;PMS5003;50156;37.772;-122.432;2022-12-18T13:28:17;59;54;
63969;PMS5003;50156;37.772;-122.432;2022-12-18T13:30:52;51;51;
63969;PMS5003;50156;37.772;-122.432;2022-12-18T13:33:39;50;44;
63969;PMS5003;50156;37.772;-122.432;2022-12-18T13:36:13;51;46;
63969;PMS5003;50156;37.772;-122.432;2022-12-18T13:38:43;49;45;
63969;PMS5003;50156;37.772;-122.432;2022-12-18T13:41:23;50;47;
63969;PMS5003;50156;37.772;-122.432;2022-12-18T13:43:54;50;50;
63969;PMS5003;50156;37.772;-122.432;2022-12-18T13:46:42;48;46;
63969;PMS5003;50156;37.772;-122.432;2022-12-18T13:49:21;55;50;
63969;PMS5003;50156;37.772;-122.432;2022-12-18T13:51:54;47;46;
63969;PMS5003;50156;37.772;-122.432;2022-12-18T13:54:25;51;48;
63969;PMS5003;50156;37.772;-122.432;2022-12-18T13:57:01;49;48;
63969;PMS5003;50156;37.772;-122.432;2022-12-18T13:59:33;52;49;
63969;PMS5003;50156;37.772;-122.432;2022-12-18T14:02:09;54;54;
63969;PMS5003;50156;37.772;-122.432;2022-12-18T14:04:44;56;52;
63969;PMS5003;50156;37.772;-122.432;2022-12-18T14:07:13;49;48;
63969;PMS5003;50156;37.772;-122.432;2022-12-18T14:09:45;54;47;
63969;PMS5003;50156;37.772;-122.432;2022-12-18T14:12:17;47;47;
63969;PMS5003;50156;37.772;-122.432;2022-12-18T14:14:48;42;41;
63969;PMS5003;50156;37.772;-122.432;2022-12-18T14:17:18;51;49;
63969;PMS5003;50156;37.772;-122.432;2022-12-18T14:19:48;55;49;
63969;PMS5003;50156;37.772;-122.432;2022-12-18T14:22:18;58;54;
63969;PMS5003;50156;37.772;-122.432;2022-12-18T14:25:04;57;52;
63969;PMS5003;50156;37.772;-122.432;2022-12-18T14:27:42;58;52;
63969;PMS5003;50156;37.772;-122.432;2022-12-18T14:30:29;49;49;
63969;PMS5003;50156;37.772;-122.432;2022-12-18T14:33:00;57;51;
63969;PMS5003;50156;37.772;-122.432;2022-12-18T14:35:30;57;52;
63969;PMS5003;50156;37.772;-122.432;2022-12-18T14:38:33;50;48;
63969;PMS5003;50156;37.772;-122.432;2022-12-18T14:41:03;53;52;
63969;PMS5003;50156;37.772;-122.432;2022-12-18T14:43:34;56;52;
63969;PMS5003;50156;37.772;-122.432;2022-12-18T14:46:04;49;47;
63969;PMS5003;50156;37.772;-122.432;2022-12-18T14:48:52;53;45;
63969;PMS5003;50156;37.772;-122.432;2022-12-18T14:51:23;53;46;
63969;PMS5003;50156;37.772;-122.432;2022-12-18T14:53:53;45;44;
63969;PMS5003;50156;37.772;-122.432;2022-12-18T14:56:25;47;47;
63969;PMS5003;50156;37.772;-122.432;2022-12-18T14:58:56;55;52;
63969;PMS5003;50156;37.772;-122.432;2022-12-18T15:01:28;51;50;
63969;PMS5003;50156;37.772;-122.432;2022-12-18T15:04:00;55;51;
63969;PMS5003;50156;37.772;-122.432;2022-12-18T15:06:31;55;53;
63969;PMS5003;50156;37.772;-122.432;2022-12-18T15:09:02;56;51;
63969;PMS5003;50156;37.772;-122.432;2022-12-18T15:11:34;46;42;
63969;PMS5003;50156;37.772;-122.432;2022-12-18T15:14:45;53;50;
63969;PMS5003;50156;37.772;-122.432;2022-12-18T15:17:15;55;48;
63969;PMS5003;50156;37.772;-122.432;2022-12-18T15:19:47;45;45;
63969;PMS5003;50156;37.772;-122.432;2022-12-18T15:22:19;48;48;
63969;PMS5003;50156;37.772;-122.432;2022-12-18T15:24:52;46;43;
63969;PMS5003;50156;37.772;-122.432;2022-12-18T15:27:25;52;48;
63969;PMS5003;50156;37.772;-122.432;2022-12-18T15:30:18;54;49;
63969;PMS5003;50156;37.772;-122.432;2022-12-18T15:32:48;42;42;
63969;PMS5003;50156;37.772;-122.432;2022-12-18T15:35:19;41;39;
63969;PMS5003;50156;37.772;-122.432;2022-12-18T15:37:49;47;44;
63969;PMS5003;50156;37.772;-122.432;2022-12-18T15:40:19;40;38;
63969;PMS5003;50156;37.772;-122.432;2022-12-18T15:42:52;53;50;
63969;PMS5003;50156;37.772;-122.432;2022-12-18T15:45:23;48;42;
63969;PMS5003;50156;37.772;-122.432;2022-12-18T15:47:51;37;35;
63969;PMS5003;50156;37.772;-122.432;2022-12-18T15:50:20;42;38;
63969;PMS5003;50156;37.772;-122.432;2022-12-18T15:52:50;44;38;
63969;PMS5003;50156;37.772;-122.432;2022-12-18T15:55:21;45;41;
63969;PMS5003;50156;37.772;-122.432;2022-12-18T15:57:51;39;38;
63969;PMS5003;50156;37.772;-122.432;2022-12-18T16:00:19;44;38;
63969;PMS5003;50156;37.772;-122.432;2022-12-18T16:02:49;44;41;
63969;PMS5003;50156;37.772;-122.432;2022-12-18T16:05:18;41;41;